Time;durP1;ratioP1;P1;durP2;ratioP2;P2;SDS_P1;SDS_P2;PMS_P1;PMS_P2;Temp;Humidity;BMP_temperature;BMP_pressure;BME280_temperature;BME280_humidity;BME280_pressure;Samples;Min_cycle;Max_cycle;Signal;HPM_P1;HPM_P2
2023/07/05 04:02:55;;;;;;;5.60;2.60;;;15.60;99.90;;;;;;4946042;28;20546;-72
2023/07/05 04:05:23;;;;;;;5.20;2.70;;;15.40;99.90;;;;;;4954704;28;20937;-72
2023/07/05 04:07:49;;;;;;;1.93;1.57;;;15.20;99.90;;;;;;4954148;28;20476;-72
2023/07/05 04:10:16;;;;;;;1.53;1.43;;;15.10;99.90;;;;;;4956456;28;20574;-73
2023/07/05 04:12:43;;;;;;;1.80;1.80;;;15.00;99.90;;;;;;4954300;28;20487;-72
2023/07/05 04:15:11;;;;;;;2.00;1.90;;;14.80;99.90;;;;;;4954769;28;20576;-72
2023/07/05 04:17:37;;;;;;;1.80;1.70;;;14.70;99.90;;;;;;4956862;28;20472;-73
2023/07/05 04:20:07;;;;;;;4.03;1.93;;;14.60;99.90;;;;;;4952222;28;20558;-72
2023/07/05 04:22:36;;;;;;;1.40;1.40;;;14.60;99.90;;;;;;4951241;28;20495;-72
2023/07/05 04:25:03;;;;;;;2.00;1.60;;;14.60;99.90;;;;;;4951867;28;20487;-72
2023/07/05 04:27:30;;;;;;;2.87;2.67;;;14.50;99.90;;;;;;4952231;28;20508;-72
2023/07/05 04:29:56;;;;;;;4.20;2.03;;;14.40;99.90;;;;;;4951645;28;20517;-73
2023/07/05 04:32:23;;;;;;;2.47;2.37;;;14.40;99.90;;;;;;4951575;28;20512;-72
2023/07/05 04:34:50;;;;;;;1.27;1.27;;;14.40;99.90;;;;;;4952360;28;20464;-71
2023/07/05 04:37:18;;;;;;;2.80;2.67;;;14.40;99.90;;;;;;4951358;28;20497;-72
2023/07/05 04:39:45;;;;;;;3.30;1.97;;;14.40;99.90;;;;;;4952182;28;20468;-72
2023/07/05 04:42:11;;;;;;;2.93;2.83;;;14.40;99.90;;;;;;4952026;28;20487;-72
2023/07/05 04:44:38;;;;;;;2.70;2.40;;;14.40;99.90;;;;;;4951306;28;20575;-71
2023/07/05 04:47:05;;;;;;;2.30;1.80;;;14.40;99.90;;;;;;4952024;28;20460;-72
2023/07/05 04:49:32;;;;;;;1.73;1.63;;;14.40;99.90;;;;;;4951972;28;20469;-71
2023/07/05 04:51:59;;;;;;;2.20;2.07;;;14.30;99.90;;;;;;4951259;28;20496;-71
2023/07/05 04:54:27;;;;;;;2.17;2.17;;;14.40;99.90;;;;;;4951522;28;20491;-71
2023/07/05 04:56:55;;;;;;;5.23;4.10;;;14.40;99.90;;;;;;4951646;28;20493;-71
2023/07/05 04:59:21;;;;;;;3.17;2.93;;;14.40;99.90;;;;;;4951563;28;20814;-72
2023/07/05 05:01:48;;;;;;;5.73;3.40;;;14.50;99.90;;;;;;4951906;28;20579;-71
2023/07/05 05:04:15;;;;;;;6.73;3.00;;;14.60;99.90;;;;;;4951268;28;20992;-72
2023/07/05 05:06:42;;;;;;;3.23;3.00;;;14.60;99.90;;;;;;4951143;28;20460;-72
2023/07/05 05:09:09;;;;;;;8.70;4.60;;;14.60;99.90;;;;;;4951900;28;20836;-71
2023/07/05 05:11:37;;;;;;;2.87;2.70;;;14.60;99.90;;;;;;4951657;28;20488;-71
2023/07/05 05:14:04;;;;;;;6.33;2.87;;;14.50;99.90;;;;;;4951512;28;20472;-72
2023/07/05 05:16:32;;;;;;;4.57;4.00;;;14.40;99.90;;;;;;4951120;28;20492;-72
2023/07/05 05:18:58;;;;;;;3.00;2.80;;;14.40;99.90;;;;;;4951488;28;20886;-72
2023/07/05 05:21:25;;;;;;;3.17;2.07;;;14.40;99.90;;;;;;4950978;28;20524;-72
2023/07/05 05:23:52;;;;;;;2.70;2.50;;;14.30;99.90;;;;;;4951776;28;20487;-73
2023/07/05 05:26:18;;;;;;;3.57;3.23;;;14.20;99.90;;;;;;4955208;28;20465;-72
2023/07/05 05:28:46;;;;;;;2.40;2.30;;;14.20;99.90;;;;;;4955360;28;20475;-72
2023/07/05 05:31:13;;;;;;;4.60;4.20;;;14.10;99.90;;;;;;4954437;28;20489;-71
2023/07/05 05:33:40;;;;;;;4.47;3.97;;;14.10;99.90;;;;;;4954853;28;20469;-72
2023/07/05 05:36:07;;;;;;;8.87;3.20;;;14.10;99.90;;;;;;4954286;28;20961;-72
2023/07/05 05:38:35;;;;;;;3.30;3.07;;;14.20;99.90;;;;;;4955292;28;20548;-72
2023/07/05 05:41:04;;;;;;;3.63;3.30;;;14.20;99.90;;;;;;4954866;28;20492;-72
2023/07/05 05:43:31;;;;;;;5.70;3.60;;;14.20;99.90;;;;;;4954817;28;20476;-72
2023/07/05 05:45:59;;;;;;;3.77;3.60;;;14.30;99.90;;;;;;4954064;28;20461;-72
2023/07/05 05:48:26;;;;;;;3.60;3.30;;;14.20;99.90;;;;;;4955132;28;20476;-72
2023/07/05 05:50:53;;;;;;;3.83;2.70;;;14.30;99.90;;;;;;4954247;28;20860;-72
2023/07/05 05:53:19;;;;;;;3.60;2.93;;;14.30;99.90;;;;;;4954920;28;20499;-71
2023/07/05 05:55:46;;;;;;;3.80;3.50;;;14.20;99.90;;;;;;4954428;28;20507;-72
2023/07/05 05:58:13;;;;;;;3.27;3.03;;;14.20;99.90;;;;;;4954353;28;20469;-72
2023/07/05 06:00:40;;;;;;;3.50;3.20;;;14.20;99.90;;;;;;4954011;28;20496;-72
2023/07/05 06:03:08;;;;;;;6.70;2.93;;;14.10;99.90;;;;;;4954968;28;20464;-73
2023/07/05 06:05:36;;;;;;;6.60;4.40;;;14.20;99.90;;;;;;4954399;28;20487;-72
2023/07/05 06:08:03;;;;;;;2.63;2.53;;;14.20;99.90;;;;;;4954264;28;20473;-72
2023/07/05 06:10:30;;;;;;;7.47;3.47;;;14.20;99.90;;;;;;4954587;28;20491;-72
2023/07/05 06:12:57;;;;;;;2.93;2.50;;;14.20;99.90;;;;;;4954733;28;20465;-72
2023/07/05 06:15:24;;;;;;;4.83;4.53;;;14.20;99.90;;;;;;4953709;28;20512;-72
2023/07/05 06:17:51;;;;;;;4.53;3.33;;;14.20;99.90;;;;;;4954361;28;20479;-72
2023/07/05 06:20:19;;;;;;;3.20;2.90;;;14.20;99.90;;;;;;4954878;28;20469;-72
2023/07/05 06:22:46;;;;;;;4.73;3.60;;;14.20;99.90;;;;;;4954280;28;20468;-72
2023/07/05 06:25:12;;;;;;;4.53;3.63;;;14.40;99.90;;;;;;4954414;28;20464;-72
2023/07/05 06:27:39;;;;;;;3.30;3.03;;;14.30;99.90;;;;;;4954094;28;20469;-72
2023/07/05 06:30:07;;;;;;;3.17;3.07;;;14.40;99.90;;;;;;4953748;28;20464;-72
2023/07/05 06:32:35;;;;;;;3.73;3.43;;;14.40;99.90;;;;;;4954178;28;20492;-72
2023/07/05 06:35:02;;;;;;;2.67;2.40;;;14.30;99.90;;;;;;4953720;28;20678;-72
2023/07/05 06:37:30;;;;;;;3.40;3.10;;;14.30;99.90;;;;;;4953070;28;20492;-72
2023/07/05 06:39:57;;;;;;;6.13;3.63;;;14.30;99.90;;;;;;4954131;28;20468;-72
2023/07/05 06:42:23;;;;;;;3.97;3.20;;;14.30;99.90;;;;;;4953592;28;20485;-72
2023/07/05 06:44:50;;;;;;;2.83;2.63;;;14.30;99.90;;;;;;4953507;28;20472;-73
2023/07/05 06:47:17;;;;;;;3.70;3.20;;;14.30;99.90;;;;;;4954111;28;20461;-72
2023/07/05 06:49:43;;;;;;;4.40;3.27;;;14.30;99.90;;;;;;4954309;28;20475;-72
2023/07/05 06:52:10;;;;;;;3.10;2.90;;;14.30;99.90;;;;;;4953832;28;20512;-73
2023/07/05 06:54:38;;;;;;;5.20;3.87;;;14.30;99.90;;;;;;4953783;28;20464;-73
2023/07/05 06:57:05;;;;;;;3.57;3.20;;;14.30;99.90;;;;;;4953809;28;20493;-72
2023/07/05 06:59:32;;;;;;;5.50;4.30;;;14.30;99.90;;;;;;4953663;28;20476;-73
2023/07/05 07:01:59;;;;;;;3.80;3.60;;;14.30;99.90;;;;;;4953500;28;20496;-72
2023/07/05 07:04:26;;;;;;;4.93;3.93;;;14.40;99.90;;;;;;4953556;28;20464;-72
2023/07/05 07:06:52;;;;;;;3.90;3.43;;;14.30;99.90;;;;;;4953256;28;20460;-73
2023/07/05 07:09:19;;;;;;;5.30;4.90;;;14.40;99.90;;;;;;4953564;28;20472;-71
2023/07/05 07:11:47;;;;;;;4.87;4.57;;;14.40;99.90;;;;;;4953393;28;20503;-72
2023/07/05 07:14:14;;;;;;;4.73;4.37;;;14.40;99.90;;;;;;4952972;28;20469;-72
2023/07/05 07:16:41;;;;;;;4.43;4.10;;;14.50;99.90;;;;;;4953612;28;20504;-73
2023/07/05 07:19:07;;;;;;;4.30;3.30;;;14.60;99.90;;;;;;4953984;28;20496;-72
2023/07/05 07:21:34;;;;;;;6.63;3.10;;;14.60;99.90;;;;;;4952946;28;20488;-71
2023/07/05 07:24:01;;;;;;;4.40;4.00;;;14.70;99.90;;;;;;4952799;28;20488;-72
2023/07/05 07:26:28;;;;;;;5.23;3.50;;;14.80;99.90;;;;;;4952976;28;20460;-73
2023/07/05 07:28:57;;;;;;;4.40;3.70;;;14.90;99.90;;;;;;4953272;28;20473;-72
2023/07/05 07:31:29;;;;;;;4.73;4.40;;;15.00;99.90;;;;;;4952934;28;20812;-71
2023/07/05 07:33:56;;;;;;;13.40;4.73;;;15.20;99.90;;;;;;4952994;28;20971;-72
2023/07/05 07:36:24;;;;;;;3.60;3.40;;;15.30;99.90;;;;;;4952187;28;20520;-71
2023/07/05 07:38:52;;;;;;;4.60;3.70;;;15.40;99.90;;;;;;4953079;28;20488;-72
2023/07/05 07:41:21;;;;;;;3.77;3.23;;;15.50;99.90;;;;;;4952752;28;20492;-72
2023/07/05 07:43:51;;;;;;;2.63;2.43;;;15.40;99.90;;;;;;4952617;28;20479;-72
2023/07/05 07:46:21;;;;;;;2.60;2.50;;;15.40;99.90;;;;;;4952295;28;20832;-72
2023/07/05 07:48:50;;;;;;;2.27;2.20;;;15.40;99.90;;;;;;4953403;28;20470;-71
2023/07/05 07:51:18;;;;;;;3.30;3.00;;;15.40;99.90;;;;;;4952189;28;20488;-72
2023/07/05 07:53:45;;;;;;;5.27;2.93;;;15.50;99.90;;;;;;4952768;28;20824;-72
2023/07/05 07:56:13;;;;;;;3.97;3.50;;;15.50;99.90;;;;;;4951854;28;20991;-72
2023/07/05 07:58:40;;;;;;;2.57;2.47;;;15.60;99.90;;;;;;4952372;28;20466;-73
2023/07/05 08:01:11;;;;;;;4.17;3.77;;;15.60;99.90;;;;;;4951814;28;20667;-72
2023/07/05 08:03:40;;;;;;;6.33;5.80;;;15.70;99.90;;;;;;4952258;28;20460;-72
2023/07/05 08:06:07;;;;;;;2.90;2.70;;;15.70;99.90;;;;;;4951853;28;20476;-72
2023/07/05 08:08:33;;;;;;;4.10;3.80;;;15.80;99.90;;;;;;4952441;28;20464;-72
2023/07/05 08:11:02;;;;;;;4.30;4.10;;;15.90;99.90;;;;;;4952282;28;20492;-72
2023/07/05 08:13:28;;;;;;;3.30;3.00;;;16.00;99.90;;;;;;4952634;28;20470;-72
2023/07/05 08:15:55;;;;;;;5.30;5.00;;;16.20;99.90;;;;;;4951444;28;20464;-72
2023/07/05 08:18:22;;;;;;;4.77;3.27;;;16.40;99.90;;;;;;4952616;28;20493;-72
2023/07/05 08:20:50;;;;;;;4.07;3.67;;;16.60;99.90;;;;;;4952093;28;20834;-72
2023/07/05 08:23:17;;;;;;;4.53;3.93;;;16.70;99.90;;;;;;4952251;28;20976;-72
2023/07/05 08:25:43;;;;;;;3.07;2.80;;;16.80;99.90;;;;;;4951947;28;20472;-72
2023/07/05 08:28:11;;;;;;;4.20;3.80;;;16.80;99.90;;;;;;4952166;28;20471;-72
2023/07/05 08:30:39;;;;;;;3.60;3.40;;;17.00;99.90;;;;;;4951670;28;20520;-72
2023/07/05 08:33:07;;;;;;;7.63;3.87;;;17.10;99.90;;;;;;4952928;28;20468;-72
2023/07/05 08:35:34;;;;;;;2.90;2.80;;;17.40;99.90;;;;;;4951994;28;20464;-72
2023/07/05 08:38:02;;;;;;;4.00;3.60;;;17.60;99.90;;;;;;4951716;28;20492;-71
2023/07/05 08:40:35;;;;;;;8.10;3.07;;;17.80;99.90;;;;;;4952189;28;21025;-72
2023/07/05 08:43:09;;;;;;;4.93;3.33;;;18.30;99.90;;;;;;4952226;28;20482;-72
2023/07/05 08:45:42;;;;;;;3.50;3.30;;;18.80;99.90;;;;;;4943949;29;20468;-72
2023/07/05 08:48:12;;;;;;;2.00;1.90;;;19.00;99.90;;;;;;4952270;28;20467;-72
2023/07/05 08:50:41;;;;;;;8.30;6.77;;;18.90;99.90;;;;;;4952266;28;20490;-72
2023/07/05 08:53:14;;;;;;;2.80;2.63;;;18.90;99.90;;;;;;4952513;28;20474;-72
2023/07/05 08:55:50;;;;;;;1.70;1.60;;;18.90;99.90;;;;;;4952643;28;20816;-72
2023/07/05 08:58:22;;;;;;;2.47;2.23;;;18.70;99.90;;;;;;4952854;28;20476;-73
2023/07/05 09:00:57;;;;;;;1.77;1.60;;;18.90;99.90;;;;;;4955561;28;20873;-72
2023/07/05 09:03:28;;;;;;;1.90;1.90;;;18.90;99.90;;;;;;4957038;28;20558;-72
2023/07/05 09:06:09;;;;;;;1.10;1.10;;;19.10;99.90;;;;;;4955902;28;20532;-72
2023/07/05 09:08:48;;;;;;;1.20;1.20;;;19.50;99.90;;;;;;4956441;28;20535;-72
2023/07/05 09:11:25;;;;;;;1.53;1.53;;;19.90;99.90;;;;;;4955993;28;20487;-72
2023/07/05 09:14:03;;;;;;;1.07;1.07;;;20.00;99.90;;;;;;4955922;28;20475;-72
2023/07/05 09:16:40;;;;;;;1.50;1.40;;;20.10;99.90;;;;;;4955137;28;20843;-72
2023/07/05 09:19:16;;;;;;;1.40;1.40;;;20.20;99.90;;;;;;4956067;28;20466;-72
2023/07/05 09:21:46;;;;;;;0.93;0.93;;;20.60;99.90;;;;;;4955327;28;20509;-72
2023/07/05 09:24:20;;;;;;;1.10;1.10;;;20.60;99.90;;;;;;4955533;28;20999;-72
2023/07/05 09:26:51;;;;;;;1.70;1.70;;;20.70;99.90;;;;;;4955751;28;20463;-72
2023/07/05 09:29:29;;;;;;;0.90;0.90;;;20.50;99.90;;;;;;4955857;28;20473;-72
2023/07/05 09:31:56;;;;;;;1.53;1.53;;;20.50;99.90;;;;;;4955489;28;20490;-72
2023/07/05 09:34:29;;;;;;;1.30;1.30;;;20.40;99.90;;;;;;4955499;28;20475;-72
2023/07/05 09:36:56;;;;;;;1.10;1.10;;;19.90;99.90;;;;;;4955179;28;20486;-71
2023/07/05 09:39:33;;;;;;;2.87;1.23;;;19.80;99.90;;;;;;4955705;28;20470;-71
2023/07/05 09:42:03;;;;;;;0.63;0.63;;;19.90;99.90;;;;;;4955086;28;20487;-72
2023/07/05 09:44:31;;;;;;;1.00;1.00;;;19.90;99.90;;;;;;4947084;29;20471;-72
2023/07/05 09:46:59;;;;;;;2.33;1.17;;;19.70;99.90;;;;;;4955333;28;20877;-71
2023/07/05 09:49:27;;;;;;;0.70;0.70;;;19.70;99.90;;;;;;4955570;28;20472;-71
2023/07/05 09:51:54;;;;;;;1.00;1.00;;;19.80;99.90;;;;;;4954575;28;20491;-72
2023/07/05 09:54:23;;;;;;;1.00;1.00;;;19.80;99.90;;;;;;4955179;28;20469;-72
2023/07/05 09:57:01;;;;;;;1.07;1.07;;;19.90;99.90;;;;;;4954822;28;20467;-73
2023/07/05 09:59:28;;;;;;;1.07;1.00;;;20.00;99.90;;;;;;4954373;28;20585;-73
2023/07/05 10:02:01;;;;;;;1.10;1.10;;;20.20;99.90;;;;;;4954532;28;20493;-72
2023/07/05 10:04:29;;;;;;;0.60;0.60;;;20.30;99.90;;;;;;4954623;28;20480;-73
2023/07/05 10:07:00;;;;;;;1.37;1.37;;;20.20;99.90;;;;;;4954453;28;21025;-72
2023/07/05 10:09:27;;;;;;;3.63;1.37;;;20.20;99.90;;;;;;4954889;28;20464;-71
2023/07/05 10:11:57;;;;;;;1.37;1.37;;;20.20;99.90;;;;;;4953269;28;20977;-73
2023/07/05 10:14:32;;;;;;;0.40;0.40;;;20.10;99.90;;;;;;4953747;28;20480;-71
2023/07/05 10:17:05;;;;;;;0.77;0.77;;;20.10;99.90;;;;;;4953939;28;20469;-70
2023/07/05 10:19:38;;;;;;;0.93;0.90;;;20.10;99.90;;;;;;5014861;23;20680;-69
2023/07/05 10:22:13;;;;;;;0.90;0.83;;;20.10;99.90;;;;;;4991399;28;20477;-69
2023/07/05 10:24:47;;;;;;;1.80;1.70;;;20.30;99.90;;;;;;4993627;28;20850;-70
2023/07/05 10:27:25;;;;;;;1.20;1.03;;;20.40;99.90;;;;;;4993346;28;20463;-69
2023/07/05 10:30:01;;;;;;;0.90;0.90;;;20.40;99.90;;;;;;4993182;28;20982;-69
2023/07/05 10:32:29;;;;;;;1.30;1.30;;;20.60;99.90;;;;;;4993743;28;20893;-69
2023/07/05 10:34:56;;;;;;;0.77;0.70;;;20.70;99.90;;;;;;4993129;28;20541;-69
2023/07/05 10:37:32;;;;;;;0.67;0.67;;;20.80;99.90;;;;;;4992728;28;21046;-70
2023/07/05 10:40:04;;;;;;;0.83;0.83;;;21.00;99.90;;;;;;4993064;28;20488;-69
2023/07/05 10:42:32;;;;;;;1.17;1.00;;;21.00;99.90;;;;;;4993055;28;20880;-69
2023/07/05 10:45:01;;;;;;;0.70;0.70;;;20.90;99.90;;;;;;4992298;28;20960;-67
2023/07/05 10:47:28;;;;;;;0.97;0.97;;;20.70;99.90;;;;;;4993437;28;20465;-71
2023/07/05 10:50:05;;;;;;;0.97;0.97;;;20.80;99.90;;;;;;4993150;28;20547;-69
2023/07/05 10:52:34;;;;;;;0.50;0.50;;;20.80;99.90;;;;;;4992693;28;20858;-68
2023/07/05 10:55:19;;;;;;;0.60;0.60;;;20.70;99.90;;;;;;4992958;28;20466;-69
2023/07/05 10:57:53;;;;;;;1.30;1.30;;;20.60;99.90;;;;;;4993152;28;20487;-69
2023/07/05 11:00:29;;;;;;;0.50;0.50;;;20.50;99.90;;;;;;4992409;28;20514;-69
2023/07/05 11:03:01;;;;;;;0.53;0.53;;;20.50;99.90;;;;;;4992958;28;20466;-69
2023/07/05 11:05:33;;;;;;;0.50;0.50;;;20.70;99.90;;;;;;4992857;28;20467;-69
2023/07/05 11:08:03;;;;;;;1.30;1.20;;;21.00;99.90;;;;;;4992687;28;20460;-69
2023/07/05 11:10:34;;;;;;;0.60;0.60;;;21.00;99.90;;;;;;4992604;28;20484;-68
2023/07/05 11:13:01;;;;;;;0.70;0.70;;;21.10;99.90;;;;;;4992803;28;20469;-69
2023/07/05 11:15:30;;;;;;;0.40;0.40;;;21.00;99.90;;;;;;4991995;28;20841;-69
2023/07/05 11:17:57;;;;;;;0.90;0.90;;;20.90;99.90;;;;;;4992873;28;20865;-69
2023/07/05 11:20:45;;;;;;;0.67;0.67;;;20.70;99.90;;;;;;4992538;28;20497;-69
2023/07/05 11:23:13;;;;;;;0.90;0.90;;;20.70;99.90;;;;;;4992406;28;20467;-69
2023/07/05 11:26:00;;;;;;;0.50;0.50;;;20.80;99.90;;;;;;4992939;28;20479;-69
2023/07/05 11:28:35;;;;;;;0.80;0.80;;;21.00;99.90;;;;;;4992462;28;20460;-69
2023/07/05 11:31:04;;;;;;;0.70;0.70;;;21.00;99.90;;;;;;4992135;28;20475;-69
2023/07/05 11:33:31;;;;;;;0.70;0.70;;;21.10;99.90;;;;;;4992434;28;20471;-69
2023/07/05 11:36:00;;;;;;;0.63;0.63;;;21.00;99.90;;;;;;4991894;28;20464;-69
2023/07/05 11:39:07;;;;;;;4.03;0.60;;;21.10;99.90;;;;;;4991870;28;20857;-69
2023/07/05 11:41:38;;;;;;;0.53;0.53;;;21.20;99.90;;;;;;4992122;28;20941;-69
2023/07/05 11:44:22;;;;;;;0.50;0.50;;;21.10;99.90;;;;;;4991334;28;20480;-69
2023/07/05 11:46:50;;;;;;;0.37;0.37;;;21.20;99.90;;;;;;4991671;28;20465;-69
2023/07/05 11:49:35;;;;;;;0.77;0.53;;;21.10;99.90;;;;;;4992427;28;20535;-69
2023/07/05 11:52:18;;;;;;;0.43;0.43;;;20.70;99.90;;;;;;4991661;28;20477;-68
2023/07/05 11:54:50;;;;;;;0.50;0.50;;;20.40;99.90;;;;;;4992636;28;20475;-69
2023/07/05 11:57:17;;;;;;;0.50;0.50;;;20.40;99.90;;;;;;4992508;28;20467;-69
2023/07/05 11:59:50;;;;;;;0.50;0.50;;;20.30;99.90;;;;;;4991688;28;21022;-68
2023/07/05 12:02:37;;;;;;;0.40;0.40;;;20.50;99.90;;;;;;4992052;28;20809;-69
2023/07/05 12:05:10;;;;;;;0.50;0.50;;;20.60;99.90;;;;;;4991824;28;20472;-68
2023/07/05 12:07:38;;;;;;;0.50;0.50;;;20.80;99.90;;;;;;4991623;28;20468;-68
2023/07/05 12:10:06;;;;;;;0.33;0.33;;;21.10;99.90;;;;;;4992164;28;20863;-69
2023/07/05 12:12:38;;;;;;;9.90;0.70;;;21.20;99.90;;;;;;4991815;28;20465;-69
2023/07/05 12:15:06;;;;;;;0.50;0.50;;;21.40;99.90;;;;;;4990980;28;20525;-69
2023/07/05 12:17:35;;;;;;;0.27;0.27;;;21.30;99.90;;;;;;4991440;28;20474;-70
2023/07/05 12:20:06;;;;;;;0.43;0.43;;;21.10;99.90;;;;;;4991364;28;21036;-69
2023/07/05 12:22:33;;;;;;;0.50;0.50;;;21.00;99.90;;;;;;4991347;28;20947;-70
2023/07/05 12:25:00;;;;;;;0.40;0.40;;;20.90;99.90;;;;;;4991173;28;20466;-70
2023/07/05 12:27:29;;;;;;;0.40;0.40;;;20.70;99.90;;;;;;4991573;28;20469;-69
2023/07/05 12:29:58;;;;;;;0.67;0.67;;;20.60;99.90;;;;;;4991137;28;20955;-70
2023/07/05 12:32:28;;;;;;;0.50;0.50;;;20.40;99.90;;;;;;4991476;28;20463;-69
2023/07/05 12:35:24;;;;;;;0.73;0.73;;;20.30;99.90;;;;;;4991089;28;20468;-69
2023/07/05 12:37:52;;;;;;;0.70;0.70;;;20.20;99.90;;;;;;4957107;28;20490;-70
2023/07/05 12:40:28;;;;;;;0.40;0.40;;;20.20;99.90;;;;;;4992491;28;20483;-70
2023/07/05 12:42:57;;;;;;;0.50;0.50;;;20.10;99.90;;;;;;4992501;28;20965;-70
2023/07/05 12:45:28;;;;;;;0.67;0.67;;;20.00;99.90;;;;;;4991418;28;20462;-70
2023/07/05 12:47:54;;;;;;;0.60;0.60;;;19.90;99.90;;;;;;4991395;28;20548;-69
2023/07/05 12:50:25;;;;;;;0.70;0.70;;;19.80;99.90;;;;;;4990993;28;20597;-70
2023/07/05 12:53:05;;;;;;;0.77;0.77;;;19.80;99.90;;;;;;4990615;28;20469;-70
2023/07/05 12:55:35;;;;;;;0.63;0.63;;;19.80;99.90;;;;;;4990889;28;20854;-70
2023/07/05 12:58:06;;;;;;;0.60;0.60;;;19.70;99.90;;;;;;4991482;28;20590;-70
2023/07/05 13:00:33;;;;;;;0.97;0.70;;;19.90;99.90;;;;;;4990638;28;21065;-70
2023/07/05 13:03:00;;;;;;;1.23;1.23;;;20.20;99.90;;;;;;4991579;28;20465;-69
2023/07/05 13:05:29;;;;;;;1.00;1.00;;;20.40;99.90;;;;;;4993346;28;20531;-69
2023/07/05 13:07:59;;;;;;;0.90;0.90;;;20.40;99.90;;;;;;4992097;28;20494;-69
2023/07/05 13:10:26;;;;;;;0.80;0.70;;;20.30;99.90;;;;;;4991581;28;21030;-69
2023/07/05 13:12:55;;;;;;;0.93;0.60;;;20.20;99.90;;;;;;4991435;28;20553;-69
2023/07/05 13:15:33;;;;;;;0.40;0.40;;;20.00;99.90;;;;;;4990282;28;20468;-69
2023/07/05 13:18:28;;;;;;;0.70;0.70;;;19.90;99.90;;;;;;4991082;28;20536;-69
2023/07/05 13:21:10;;;;;;;0.90;0.90;;;19.70;99.90;;;;;;4988948;28;20869;-69
2023/07/05 13:23:43;;;;;;;6.70;0.97;;;19.70;99.90;;;;;;4990520;28;20467;-68
2023/07/05 13:26:26;;;;;;;1.03;1.03;;;19.70;99.90;;;;;;4991126;28;20470;-69
2023/07/05 13:28:54;;;;;;;0.90;0.90;;;19.70;99.90;;;;;;4991425;28;20830;-68
2023/07/05 13:31:23;;;;;;;1.07;1.03;;;19.60;99.90;;;;;;4991380;28;20463;-69
2023/07/05 13:33:54;;;;;;;3.10;0.93;;;19.30;99.90;;;;;;4992424;28;20970;-69
2023/07/05 13:36:22;;;;;;;1.57;0.80;;;19.00;99.90;;;;;;4992097;28;20517;-69
2023/07/05 13:38:49;;;;;;;2.40;0.90;;;18.80;99.90;;;;;;4992182;28;20490;-69
2023/07/05 13:41:25;;;;;;;0.50;0.50;;;18.70;99.90;;;;;;4990955;28;20459;-69
2023/07/05 13:43:51;;;;;;;1.20;1.10;;;18.80;99.90;;;;;;4991599;28;20459;-69
2023/07/05 13:46:18;;;;;;;1.33;1.00;;;18.80;99.90;;;;;;4993207;28;20458;-69
2023/07/05 13:48:45;;;;;;;1.07;1.07;;;18.60;99.90;;;;;;4994878;28;20483;-69
2023/07/05 13:51:26;;;;;;;7.83;1.20;;;18.60;99.90;;;;;;4995008;28;20846;-69
2023/07/05 13:53:53;;;;;;;1.87;1.77;;;18.50;99.90;;;;;;4995475;28;20533;-68
2023/07/05 13:56:20;;;;;;;0.90;0.90;;;18.30;99.90;;;;;;4996092;28;20459;-69
2023/07/05 13:58:46;;;;;;;0.70;0.70;;;18.20;99.90;;;;;;4996088;28;20498;-67
2023/07/05 14:01:16;;;;;;;0.70;0.70;;;18.20;99.90;;;;;;4994130;28;20494;-69
2023/07/05 14:03:42;;;;;;;1.40;1.13;;;18.10;99.90;;;;;;4993999;28;20463;-68
2023/07/05 14:06:14;;;;;;;0.83;0.83;;;18.10;99.90;;;;;;4993572;28;20467;-69
2023/07/05 14:08:42;;;;;;;0.70;0.70;;;18.20;99.90;;;;;;4993300;28;20951;-69
2023/07/05 14:11:15;;;;;;;0.97;0.97;;;18.30;99.90;;;;;;4993645;28;20467;-68
2023/07/05 14:13:42;;;;;;;1.87;1.30;;;18.50;99.90;;;;;;4993619;28;20822;-68
2023/07/05 14:16:12;;;;;;;1.00;1.00;;;18.80;99.90;;;;;;4992595;28;20470;-68
2023/07/05 14:18:39;;;;;;;0.93;0.93;;;19.00;99.90;;;;;;4993068;28;20493;-68
2023/07/05 14:21:09;;;;;;;1.27;1.27;;;19.40;99.90;;;;;;4993542;28;20842;-68
2023/07/05 14:23:37;;;;;;;1.43;1.10;;;19.60;99.90;;;;;;4991960;28;20436;-68
2023/07/05 14:26:05;;;;;;;1.13;1.13;;;19.80;99.90;;;;;;4993039;28;20595;-68
2023/07/05 14:28:34;;;;;;;1.37;1.27;;;19.90;99.90;;;;;;4992846;28;20465;-68
2023/07/05 14:31:01;;;;;;;0.63;0.63;;;19.90;99.90;;;;;;4992504;28;20464;-68
2023/07/05 14:33:28;;;;;;;0.77;0.77;;;19.80;99.90;;;;;;4992987;28;20959;-68
2023/07/05 14:35:55;;;;;;;0.70;0.70;;;19.90;99.90;;;;;;4992762;28;20470;-68
2023/07/05 14:38:23;;;;;;;0.90;0.90;;;19.80;99.90;;;;;;4992349;28;20996;-68
2023/07/05 14:40:50;;;;;;;3.70;1.23;;;19.80;99.90;;;;;;4992906;28;20466;-68
2023/07/05 14:43:18;;;;;;;1.10;1.00;;;19.80;99.90;;;;;;4985150;28;20467;-68
2023/07/05 14:45:46;;;;;;;1.33;1.23;;;19.60;99.90;;;;;;4992105;28;20570;-69
2023/07/05 14:48:12;;;;;;;1.37;1.13;;;19.60;99.90;;;;;;4992942;28;20467;-69
2023/07/05 14:50:39;;;;;;;1.23;1.23;;;19.70;99.90;;;;;;4993153;28;20482;-69
2023/07/05 14:53:12;;;;;;;0.70;0.70;;;19.70;99.90;;;;;;4992602;28;20459;-69
2023/07/05 14:55:38;;;;;;;1.07;0.90;;;19.60;99.90;;;;;;4993890;28;20908;-69
2023/07/05 14:58:11;;;;;;;1.00;1.00;;;19.70;99.90;;;;;;4991931;28;20463;-69
2023/07/05 15:00:40;;;;;;;1.57;1.53;;;19.60;99.90;;;;;;4992686;28;20479;-69
2023/07/05 15:03:09;;;;;;;4.33;0.90;;;19.60;99.90;;;;;;4992829;28;20831;-68
2023/07/05 15:05:36;;;;;;;0.80;0.80;;;19.70;99.90;;;;;;4992644;28;20485;-69
2023/07/05 15:08:05;;;;;;;0.97;0.97;;;19.60;99.90;;;;;;4992285;28;20478;-69
2023/07/05 15:10:33;;;;;;;1.30;1.30;;;19.60;99.90;;;;;;4992378;28;20482;-69
2023/07/05 15:13:00;;;;;;;0.77;0.77;;;19.50;99.90;;;;;;4993035;28;20512;-69
2023/07/05 15:15:31;;;;;;;1.50;1.07;;;19.40;99.90;;;;;;4992150;28;20873;-69
2023/07/05 15:17:59;;;;;;;1.90;1.30;;;19.30;99.90;;;;;;4992699;28;21109;-69
2023/07/05 15:20:27;;;;;;;2.20;1.40;;;19.30;99.90;;;;;;4992068;28;20546;-69
2023/07/05 15:22:53;;;;;;;1.10;1.00;;;19.50;99.90;;;;;;4992188;28;20470;-69
2023/07/05 15:25:22;;;;;;;1.00;1.00;;;19.50;99.90;;;;;;4992262;28;20473;-69
2023/07/05 15:27:51;;;;;;;1.00;1.00;;;19.60;99.90;;;;;;4992645;28;20475;-69
2023/07/05 15:30:20;;;;;;;0.83;0.83;;;19.80;99.90;;;;;;4991805;28;21010;-69
2023/07/05 15:32:47;;;;;;;0.70;0.70;;;20.00;99.90;;;;;;4992353;28;20834;-69
2023/07/05 15:35:17;;;;;;;0.60;0.60;;;20.10;99.90;;;;;;4992639;28;20462;-68
2023/07/05 15:37:44;;;;;;;6.63;1.30;;;20.10;99.90;;;;;;4991704;28;20506;-68
2023/07/05 15:40:12;;;;;;;1.00;1.00;;;19.90;99.90;;;;;;4992259;28;20498;-68
2023/07/05 15:42:39;;;;;;;0.80;0.80;;;20.00;99.90;;;;;;4992234;28;20467;-68
2023/07/05 15:45:08;;;;;;;0.50;0.50;;;19.90;99.90;;;;;;4991459;28;20822;-68
2023/07/05 15:47:35;;;;;;;1.23;0.90;;;20.10;99.90;;;;;;4992104;28;20812;-68
2023/07/05 15:50:02;;;;;;;1.03;0.90;;;20.40;99.90;;;;;;4991863;28;20578;-68
2023/07/05 15:52:32;;;;;;;1.00;1.00;;;20.50;99.90;;;;;;4992131;28;20844;-68
2023/07/05 15:54:59;;;;;;;0.83;0.80;;;20.40;99.90;;;;;;4992162;28;20470;-68
2023/07/05 15:57:26;;;;;;;0.73;0.70;;;20.50;99.90;;;;;;4991964;28;20467;-68
2023/07/05 15:59:57;;;;;;;1.13;0.80;;;20.40;99.90;;;;;;4991411;28;20696;-68
2023/07/05 16:02:25;;;;;;;3.23;1.20;;;20.50;99.90;;;;;;4992002;28;20809;-68
2023/07/05 16:04:52;;;;;;;0.60;0.50;;;20.60;99.90;;;;;;4992020;28;20558;-68
2023/07/05 16:07:19;;;;;;;3.03;0.93;;;20.70;99.90;;;;;;4991640;28;20465;-68
2023/07/05 16:09:47;;;;;;;0.43;0.43;;;20.50;99.90;;;;;;4991988;28;20571;-68
2023/07/05 16:12:14;;;;;;;0.40;0.40;;;20.40;99.90;;;;;;4992185;28;20550;-69
2023/07/05 16:14:41;;;;;;;0.50;0.50;;;20.40;99.90;;;;;;4991182;28;20513;-68
2023/07/05 16:17:08;;;;;;;0.67;0.50;;;20.30;99.90;;;;;;4992020;28;20486;-69
2023/07/05 16:19:34;;;;;;;0.77;0.77;;;20.30;99.90;;;;;;4991398;28;20495;-69
2023/07/05 16:22:01;;;;;;;0.60;0.60;;;20.20;99.90;;;;;;4994167;28;20470;-71
2023/07/05 16:24:28;;;;;;;0.80;0.40;;;20.10;99.90;;;;;;4994453;28;20939;-70
2023/07/05 16:26:56;;;;;;;0.37;0.37;;;19.90;99.90;;;;;;4993674;28;20974;-71
2023/07/05 16:29:23;;;;;;;0.37;0.37;;;19.90;99.90;;;;;;4994477;28;20519;-70
2023/07/05 16:31:50;;;;;;;1.20;1.20;;;19.90;99.90;;;;;;4994612;28;20459;-70
2023/07/05 16:34:17;;;;;;;0.60;0.60;;;19.90;99.90;;;;;;4994470;28;20925;-69
2023/07/05 16:36:45;;;;;;;0.50;0.50;;;19.90;99.90;;;;;;4993022;28;20818;-70
2023/07/05 16:39:12;;;;;;;0.57;0.57;;;20.10;99.90;;;;;;4994754;28;20911;-70
2023/07/05 16:41:40;;;;;;;0.80;0.80;;;20.20;99.90;;;;;;4993499;28;20467;-69
2023/07/05 16:44:10;;;;;;;0.50;0.50;;;20.10;99.90;;;;;;4986461;28;20474;-69
2023/07/05 16:46:38;;;;;;;0.40;0.40;;;20.00;99.90;;;;;;4992594;28;20474;-69
2023/07/05 16:49:05;;;;;;;0.67;0.67;;;19.80;99.90;;;;;;4993927;28;20479;-70
2023/07/05 16:51:32;;;;;;;1.53;0.67;;;19.60;99.90;;;;;;4993727;28;21037;-70
2023/07/05 16:53:59;;;;;;;1.40;0.80;;;19.40;99.90;;;;;;4993690;28;20473;-69
2023/07/05 16:56:26;;;;;;;0.43;0.43;;;19.30;99.90;;;;;;4992464;28;20463;-70
2023/07/05 16:58:53;;;;;;;0.40;0.40;;;19.30;99.90;;;;;;4993370;28;20483;-69
2023/07/05 17:01:23;;;;;;;0.67;0.67;;;19.10;99.90;;;;;;4993265;28;20466;-71